sensor_id;sensor_type;location;lat;lon;timestamp;pressure;altitude;pressure_sealevel;temperature;humidity
57948;BME280;43754;56.992;24.292;2023-05-13T00:01:59;102730.84;;;8.73;79.50
57948;BME280;43754;56.992;24.292;2023-05-13T00:04:31;102726.84;;;8.68;80.22
57948;BME280;43754;56.992;24.292;2023-05-13T00:07:03;102732.53;;;8.63;80.13
57948;BME280;43754;56.992;24.292;2023-05-13T00:09:35;102739.09;;;8.59;80.16
57948;BME280;43754;56.992;24.292;2023-05-13T00:12:09;102741.03;;;8.57;80.29
57948;BME280;43754;56.992;24.292;2023-05-13T00:14:41;102746.09;;;8.49;80.23
57948;BME280;43754;56.992;24.292;2023-05-13T00:17:13;102743.91;;;8.43;81.03
57948;BME280;43754;56.992;24.292;2023-05-13T00:19:45;102740.16;;;8.46;81.26
57948;BME280;43754;56.992;24.292;2023-05-13T00:22:17;102740.66;;;8.51;80.55
57948;BME280;43754;56.992;24.292;2023-05-13T00:24:49;102725.47;;;8.51;80.08
57948;BME280;43754;56.992;24.292;2023-05-13T00:27:22;102740.03;;;8.47;80.69
57948;BME280;43754;56.992;24.292;2023-05-13T00:29:54;102737.72;;;8.43;80.80
57948;BME280;43754;56.992;24.292;2023-05-13T00:32:26;102746.09;;;8.38;81.27
57948;BME280;43754;56.992;24.292;2023-05-13T00:35:00;102748.25;;;8.33;82.65
57948;BME280;43754;56.992;24.292;2023-05-13T00:37:32;102742.72;;;8.23;82.57
57948;BME280;43754;56.992;24.292;2023-05-13T00:40:08;102748.53;;;8.17;83.24
57948;BME280;43754;56.992;24.292;2023-05-13T00:42:48;102747.41;;;8.09;83.64
57948;BME280;43754;56.992;24.292;2023-05-13T00:45:20;102742.16;;;8.07;84.37
57948;BME280;43754;56.992;24.292;2023-05-13T00:47:53;102749.78;;;8.01;85.13
57948;BME280;43754;56.992;24.292;2023-05-13T00:50:25;102743.84;;;7.97;85.39
57948;BME280;43754;56.992;24.292;2023-05-13T00:52:57;102754.09;;;7.91;86.22
57948;BME280;43754;56.992;24.292;2023-05-13T00:55:30;102752.53;;;7.88;86.07
57948;BME280;43754;56.992;24.292;2023-05-13T00:58:03;102754.19;;;7.89;86.15
57948;BME280;43754;56.992;24.292;2023-05-13T01:00:40;102748.66;;;7.92;86.57
57948;BME280;43754;56.992;24.292;2023-05-13T01:03:19;102751.19;;;7.94;86.95
57948;BME280;43754;56.992;24.292;2023-05-13T01:05:58;102757.53;;;7.93;86.96
57948;BME280;43754;56.992;24.292;2023-05-13T01:08:38;102763.63;;;7.82;88.32
57948;BME280;43754;56.992;24.292;2023-05-13T01:11:14;102759.19;;;7.70;88.51
57948;BME280;43754;56.992;24.292;2023-05-13T01:13:54;102759.44;;;7.67;89.45
57948;BME280;43754;56.992;24.292;2023-05-13T01:16:29;102754.94;;;7.67;90.07
57948;BME280;43754;56.992;24.292;2023-05-13T01:19:06;102759.31;;;7.68;89.57
57948;BME280;43754;56.992;24.292;2023-05-13T01:21:50;102757.50;;;7.69;89.78
57948;BME280;43754;56.992;24.292;2023-05-13T01:24:23;102761.69;;;7.60;89.50
57948;BME280;43754;56.992;24.292;2023-05-13T01:26:55;102763.50;;;7.60;89.69
57948;BME280;43754;56.992;24.292;2023-05-13T01:29:27;102767.16;;;7.59;90.65
57948;BME280;43754;56.992;24.292;2023-05-13T01:32:01;102763.00;;;7.55;90.98
57948;BME280;43754;56.992;24.292;2023-05-13T01:34:34;102765.88;;;7.52;91.18
57948;BME280;43754;56.992;24.292;2023-05-13T01:37:08;102766.00;;;7.50;91.16
57948;BME280;43754;56.992;24.292;2023-05-13T01:39:42;102766.09;;;7.49;91.36
57948;BME280;43754;56.992;24.292;2023-05-13T01:42:17;102766.56;;;7.43;92.03
57948;BME280;43754;56.992;24.292;2023-05-13T01:44:50;102766.13;;;7.36;92.65
57948;BME280;43754;56.992;24.292;2023-05-13T01:47:22;102765.72;;;7.29;93.04
57948;BME280;43754;56.992;24.292;2023-05-13T01:49:54;102773.28;;;7.23;93.67
57948;BME280;43754;56.992;24.292;2023-05-13T01:52:28;102767.84;;;7.24;93.20
57948;BME280;43754;56.992;24.292;2023-05-13T01:55:00;102770.53;;;7.24;93.18
57948;BME280;43754;56.992;24.292;2023-05-13T01:57:33;102771.69;;;7.20;93.70
57948;BME280;43754;56.992;24.292;2023-05-13T02:00:07;102762.75;;;7.09;95.12
57948;BME280;43754;56.992;24.292;2023-05-13T02:02:44;102763.19;;;7.03;95.25
57948;BME280;43754;56.992;24.292;2023-05-13T02:05:18;102768.28;;;7.06;94.65
57948;BME280;43754;56.992;24.292;2023-05-13T02:07:52;102764.66;;;7.07;94.70
57948;BME280;43754;56.992;24.292;2023-05-13T02:10:24;102768.81;;;7.11;94.85
57948;BME280;43754;56.992;24.292;2023-05-13T02:12:56;102773.19;;;7.12;94.42
57948;BME280;43754;56.992;24.292;2023-05-13T02:15:28;102769.69;;;7.11;94.63
57948;BME280;43754;56.992;24.292;2023-05-13T02:18:00;102767.34;;;7.07;95.24
57948;BME280;43754;56.992;24.292;2023-05-13T02:20:33;102779.16;;;7.03;95.19
57948;BME280;43754;56.992;24.292;2023-05-13T02:23:07;102771.41;;;7.00;95.28
57948;BME280;43754;56.992;24.292;2023-05-13T02:25:40;102772.56;;;6.96;95.67
57948;BME280;43754;56.992;24.292;2023-05-13T02:28:12;102774.28;;;6.97;96.22
57948;BME280;43754;56.992;24.292;2023-05-13T02:30:45;102783.34;;;6.94;96.12
57948;BME280;43754;56.992;24.292;2023-05-13T02:33:17;102775.78;;;6.88;96.65
57948;BME280;43754;56.992;24.292;2023-05-13T02:35:49;102773.53;;;6.94;96.09
57948;BME280;43754;56.992;24.292;2023-05-13T02:38:23;102777.47;;;7.02;96.13
57948;BME280;43754;56.992;24.292;2023-05-13T02:40:55;102779.81;;;7.06;96.04
57948;BME280;43754;56.992;24.292;2023-05-13T02:43:29;102783.31;;;7.07;96.14
57948;BME280;43754;56.992;24.292;2023-05-13T02:46:06;102781.75;;;7.04;96.32
57948;BME280;43754;56.992;24.292;2023-05-13T02:48:38;102777.28;;;7.05;97.45
57948;BME280;43754;56.992;24.292;2023-05-13T02:51:10;102781.97;;;7.01;97.80
57948;BME280;43754;56.992;24.292;2023-05-13T02:53:44;102784.19;;;7.07;97.46
57948;BME280;43754;56.992;24.292;2023-05-13T02:56:16;102775.00;;;7.11;97.75
57948;BME280;43754;56.992;24.292;2023-05-13T02:58:48;102783.84;;;7.24;96.90
57948;BME280;43754;56.992;24.292;2023-05-13T03:01:20;102783.06;;;7.35;95.77
57948;BME280;43754;56.992;24.292;2023-05-13T03:03:52;102785.22;;;7.43;95.33
57948;BME280;43754;56.992;24.292;2023-05-13T03:06:24;102783.06;;;7.48;95.87
57948;BME280;43754;56.992;24.292;2023-05-13T03:08:57;102783.34;;;7.56;95.52
57948;BME280;43754;56.992;24.292;2023-05-13T03:11:30;102783.44;;;7.67;95.27
57948;BME280;43754;56.992;24.292;2023-05-13T03:14:02;102781.81;;;7.77;94.83
57948;BME280;43754;56.992;24.292;2023-05-13T03:16:34;102782.09;;;7.85;94.96
57948;BME280;43754;56.992;24.292;2023-05-13T03:19:06;102786.91;;;7.93;95.19
57948;BME280;43754;56.992;24.292;2023-05-13T03:21:38;102788.25;;;7.98;95.57
57948;BME280;43754;56.992;24.292;2023-05-13T03:24:15;102785.13;;;8.04;95.42
57948;BME280;43754;56.992;24.292;2023-05-13T03:26:48;102782.75;;;8.12;95.76
57948;BME280;43754;56.992;24.292;2023-05-13T03:29:20;102790.19;;;8.20;94.79
57948;BME280;43754;56.992;24.292;2023-05-13T03:31:52;102788.03;;;8.25;94.83
57948;BME280;43754;56.992;24.292;2023-05-13T03:34:27;102795.19;;;8.24;94.91
57948;BME280;43754;56.992;24.292;2023-05-13T03:36:59;102797.09;;;8.22;95.73
57948;BME280;43754;56.992;24.292;2023-05-13T03:39:34;102794.09;;;8.27;95.53
57948;BME280;43754;56.992;24.292;2023-05-13T03:42:07;102796.97;;;8.37;95.90
57948;BME280;43754;56.992;24.292;2023-05-13T03:44:39;102798.19;;;8.44;95.83
57948;BME280;43754;56.992;24.292;2023-05-13T03:47:12;102796.03;;;8.49;96.35
57948;BME280;43754;56.992;24.292;2023-05-13T03:49:44;102795.84;;;8.63;95.54
57948;BME280;43754;56.992;24.292;2023-05-13T03:52:18;102798.88;;;8.69;94.92
57948;BME280;43754;56.992;24.292;2023-05-13T03:54:53;102800.69;;;8.69;96.04
57948;BME280;43754;56.992;24.292;2023-05-13T03:57:25;102795.63;;;8.77;94.80
57948;BME280;43754;56.992;24.292;2023-05-13T03:59:57;102798.69;;;8.95;94.03
57948;BME280;43754;56.992;24.292;2023-05-13T04:02:29;102805.75;;;9.85;90.67
57948;BME280;43754;56.992;24.292;2023-05-13T04:05:01;102805.75;;;10.59;86.85
57948;BME280;43754;56.992;24.292;2023-05-13T04:07:33;102800.56;;;11.09;83.55
57948;BME280;43754;56.992;24.292;2023-05-13T04:10:08;102796.81;;;11.61;81.44
57948;BME280;43754;56.992;24.292;2023-05-13T04:12:49;102799.09;;;12.06;79.66
57948;BME280;43754;56.992;24.292;2023-05-13T04:15:21;102792.59;;;12.37;79.13
57948;BME280;43754;56.992;24.292;2023-05-13T04:17:53;102798.69;;;12.68;77.79
57948;BME280;43754;56.992;24.292;2023-05-13T04:20:25;102799.03;;;13.11;75.03
57948;BME280;43754;56.992;24.292;2023-05-13T04:22:59;102802.44;;;13.50;73.39
57948;BME280;43754;56.992;24.292;2023-05-13T04:25:34;102801.97;;;13.82;72.35
57948;BME280;43754;56.992;24.292;2023-05-13T04:28:08;102795.25;;;14.13;70.61
57948;BME280;43754;56.992;24.292;2023-05-13T04:30:47;102796.44;;;14.46;70.42
57948;BME280;43754;56.992;24.292;2023-05-13T04:33:19;102797.34;;;14.72;70.68
57948;BME280;43754;56.992;24.292;2023-05-13T04:35:52;102800.88;;;14.99;69.53
57948;BME280;43754;56.992;24.292;2023-05-13T04:38:24;102794.78;;;15.23;68.64
57948;BME280;43754;56.992;24.292;2023-05-13T04:40:58;102804.41;;;15.51;68.07
57948;BME280;43754;56.992;24.292;2023-05-13T04:43:39;102796.28;;;15.85;66.50
57948;BME280;43754;56.992;24.292;2023-05-13T04:46:11;102794.63;;;16.16;65.43
57948;BME280;43754;56.992;24.292;2023-05-13T04:48:43;102798.91;;;16.35;64.56
57948;BME280;43754;56.992;24.292;2023-05-13T04:51:19;102801.28;;;16.54;63.46
57948;BME280;43754;56.992;24.292;2023-05-13T04:53:51;102802.50;;;16.68;63.65
57948;BME280;43754;56.992;24.292;2023-05-13T04:56:26;102796.19;;;16.91;62.96
57948;BME280;43754;56.992;24.292;2023-05-13T04:58:59;102812.59;;;17.22;62.66
57948;BME280;43754;56.992;24.292;2023-05-13T05:01:31;102797.66;;;17.26;65.46
57948;BME280;43754;56.992;24.292;2023-05-13T05:04:04;102808.06;;;17.62;60.53
57948;BME280;43754;56.992;24.292;2023-05-13T05:06:37;102797.00;;;18.02;55.80
57948;BME280;43754;56.992;24.292;2023-05-13T05:09:10;102802.41;;;18.10;58.33
57948;BME280;43754;56.992;24.292;2023-05-13T05:11:43;102805.00;;;18.26;57.44
57948;BME280;43754;56.992;24.292;2023-05-13T05:14:16;102797.47;;;18.59;53.57
57948;BME280;43754;56.992;24.292;2023-05-13T05:16:49;102802.34;;;18.87;54.62
57948;BME280;43754;56.992;24.292;2023-05-13T05:19:21;102799.06;;;19.20;51.35
57948;BME280;43754;56.992;24.292;2023-05-13T05:21:56;102803.69;;;19.35;47.15
57948;BME280;43754;56.992;24.292;2023-05-13T05:24:28;102804.81;;;19.55;44.70
57948;BME280;43754;56.992;24.292;2023-05-13T05:27:02;102807.66;;;19.61;43.02
57948;BME280;43754;56.992;24.292;2023-05-13T05:29:35;102808.06;;;19.80;43.37
57948;BME280;43754;56.992;24.292;2023-05-13T05:32:07;102807.25;;;20.15;41.38
57948;BME280;43754;56.992;24.292;2023-05-13T05:34:39;102802.41;;;20.32;42.86
57948;BME280;43754;56.992;24.292;2023-05-13T05:37:13;102796.25;;;20.65;42.82
57948;BME280;43754;56.992;24.292;2023-05-13T05:39:45;102802.41;;;20.53;40.30
57948;BME280;43754;56.992;24.292;2023-05-13T05:42:18;102799.28;;;20.77;41.24
57948;BME280;43754;56.992;24.292;2023-05-13T05:44:51;102799.38;;;20.90;40.60
57948;BME280;43754;56.992;24.292;2023-05-13T05:47:23;102802.31;;;21.17;39.85
57948;BME280;43754;56.992;24.292;2023-05-13T05:49:55;102792.06;;;21.25;40.40
57948;BME280;43754;56.992;24.292;2023-05-13T05:52:28;102796.22;;;21.49;39.23
57948;BME280;43754;56.992;24.292;2023-05-13T05:55:00;102795.03;;;21.71;40.37
57948;BME280;43754;56.992;24.292;2023-05-13T05:57:33;102803.47;;;21.76;42.07
57948;BME280;43754;56.992;24.292;2023-05-13T06:00:07;102806.94;;;22.05;40.54
57948;BME280;43754;56.992;24.292;2023-05-13T06:02:45;102788.53;;;22.33;39.65
57948;BME280;43754;56.992;24.292;2023-05-13T06:05:20;102801.75;;;22.29;40.26
57948;BME280;43754;56.992;24.292;2023-05-13T06:07:52;102795.03;;;22.32;41.45
57948;BME280;43754;56.992;24.292;2023-05-13T06:10:24;102793.81;;;22.41;38.55
57948;BME280;43754;56.992;24.292;2023-05-13T06:12:58;102788.31;;;22.28;39.50
57948;BME280;43754;56.992;24.292;2023-05-13T06:15:32;102797.38;;;22.61;40.36
57948;BME280;43754;56.992;24.292;2023-05-13T06:18:04;102788.75;;;22.64;38.36
57948;BME280;43754;56.992;24.292;2023-05-13T06:20:38;102791.94;;;22.81;38.41
57948;BME280;43754;56.992;24.292;2023-05-13T06:23:10;102786.03;;;22.97;36.92
57948;BME280;43754;56.992;24.292;2023-05-13T06:25:42;102790.66;;;23.03;34.60
57948;BME280;43754;56.992;24.292;2023-05-13T06:28:15;102784.13;;;23.11;36.86
57948;BME280;43754;56.992;24.292;2023-05-13T06:30:48;102784.09;;;23.24;37.73
57948;BME280;43754;56.992;24.292;2023-05-13T06:33:20;102782.19;;;23.31;36.92
57948;BME280;43754;56.992;24.292;2023-05-13T06:35:52;102786.81;;;23.37;36.89
57948;BME280;43754;56.992;24.292;2023-05-13T06:38:25;102786.34;;;23.53;37.34
57948;BME280;43754;56.992;24.292;2023-05-13T06:41:00;102786.47;;;23.71;35.57
57948;BME280;43754;56.992;24.292;2023-05-13T06:43:38;102788.16;;;23.79;35.12
57948;BME280;43754;56.992;24.292;2023-05-13T06:46:20;102790.00;;;23.85;36.42
57948;BME280;43754;56.992;24.292;2023-05-13T06:48:52;102783.41;;;23.93;35.29
57948;BME280;43754;56.992;24.292;2023-05-13T06:51:26;102791.06;;;23.84;35.02
57948;BME280;43754;56.992;24.292;2023-05-13T06:53:59;102790.59;;;23.94;34.54
57948;BME280;43754;56.992;24.292;2023-05-13T06:56:31;102790.56;;;24.00;33.00
57948;BME280;43754;56.992;24.292;2023-05-13T06:59:04;102788.81;;;24.06;33.54
57948;BME280;43754;56.992;24.292;2023-05-13T07:01:36;102792.00;;;24.03;34.90
57948;BME280;43754;56.992;24.292;2023-05-13T07:04:09;102793.97;;;23.96;34.60
57948;BME280;43754;56.992;24.292;2023-05-13T07:06:41;102797.13;;;23.93;34.30
57948;BME280;43754;56.992;24.292;2023-05-13T07:09:13;102791.63;;;23.93;35.66
57948;BME280;43754;56.992;24.292;2023-05-13T07:11:45;102787.97;;;24.05;36.27
57948;BME280;43754;56.992;24.292;2023-05-13T07:14:19;102786.25;;;24.17;35.78
57948;BME280;43754;56.992;24.292;2023-05-13T07:16:52;102787.97;;;24.12;33.95
57948;BME280;43754;56.992;24.292;2023-05-13T07:19:24;102782.09;;;24.08;33.29
57948;BME280;43754;56.992;24.292;2023-05-13T07:21:56;102769.44;;;24.07;31.51
57948;BME280;43754;56.992;24.292;2023-05-13T07:24:28;102774.88;;;24.20;31.27
57948;BME280;43754;56.992;24.292;2023-05-13T07:27:00;102780.56;;;24.50;31.15
57948;BME280;43754;56.992;24.292;2023-05-13T07:29:33;102769.59;;;24.50;28.39
57948;BME280;43754;56.992;24.292;2023-05-13T07:32:06;102773.13;;;24.26;27.99
57948;BME280;43754;56.992;24.292;2023-05-13T07:34:38;102772.44;;;24.37;31.27
57948;BME280;43754;56.992;24.292;2023-05-13T07:37:10;102771.59;;;24.37;30.09
57948;BME280;43754;56.992;24.292;2023-05-13T07:39:42;102778.06;;;24.42;31.08
57948;BME280;43754;56.992;24.292;2023-05-13T07:42:14;102773.13;;;24.26;32.78
57948;BME280;43754;56.992;24.292;2023-05-13T07:44:47;102774.28;;;24.43;32.37
57948;BME280;43754;56.992;24.292;2023-05-13T07:47:19;102772.47;;;24.55;33.00
57948;BME280;43754;56.992;24.292;2023-05-13T07:49:51;102775.13;;;24.68;32.70
57948;BME280;43754;56.992;24.292;2023-05-13T07:52:24;102773.69;;;24.84;33.67
57948;BME280;43754;56.992;24.292;2023-05-13T07:54:56;102765.44;;;24.91;30.91
57948;BME280;43754;56.992;24.292;2023-05-13T07:57:28;102770.34;;;25.07;32.16
57948;BME280;43754;56.992;24.292;2023-05-13T08:00:02;102768.47;;;25.26;32.21
57948;BME280;43754;56.992;24.292;2023-05-13T08:02:43;102770.06;;;25.33;30.47
57948;BME280;43754;56.992;24.292;2023-05-13T08:05:15;102765.78;;;25.37;32.11
57948;BME280;43754;56.992;24.292;2023-05-13T08:07:47;102763.72;;;25.14;28.64
57948;BME280;43754;56.992;24.292;2023-05-13T08:10:19;102760.38;;;25.31;28.20
57948;BME280;43754;56.992;24.292;2023-05-13T08:12:52;102760.31;;;25.37;29.03
57948;BME280;43754;56.992;24.292;2023-05-13T08:15:29;102761.59;;;25.35;27.27
57948;BME280;43754;56.992;24.292;2023-05-13T08:18:01;102758.16;;;25.03;26.96
57948;BME280;43754;56.992;24.292;2023-05-13T08:20:34;102770.69;;;25.17;27.71
57948;BME280;43754;56.992;24.292;2023-05-13T08:23:06;102757.25;;;25.09;26.44
57948;BME280;43754;56.992;24.292;2023-05-13T08:25:38;102756.41;;;25.27;26.87
57948;BME280;43754;56.992;24.292;2023-05-13T08:28:10;102762.50;;;25.47;28.03
57948;BME280;43754;56.992;24.292;2023-05-13T08:30:43;102760.06;;;25.39;25.97
57948;BME280;43754;56.992;24.292;2023-05-13T08:33:15;102757.31;;;25.39;28.55
57948;BME280;43754;56.992;24.292;2023-05-13T08:35:47;102758.00;;;25.16;25.80
57948;BME280;43754;56.992;24.292;2023-05-13T08:38:19;102755.25;;;24.98;25.30
57948;BME280;43754;56.992;24.292;2023-05-13T08:40:51;102745.97;;;25.17;25.55
57948;BME280;43754;56.992;24.292;2023-05-13T08:43:26;102757.47;;;25.44;26.31
57948;BME280;43754;56.992;24.292;2023-05-13T08:46:01;102742.56;;;25.51;25.18
57948;BME280;43754;56.992;24.292;2023-05-13T08:48:35;102750.13;;;25.74;26.52
57948;BME280;43754;56.992;24.292;2023-05-13T08:51:08;102745.38;;;25.81;26.79
57948;BME280;43754;56.992;24.292;2023-05-13T08:53:41;102749.28;;;25.74;25.04
57948;BME280;43754;56.992;24.292;2023-05-13T08:56:15;102741.72;;;25.87;26.73
57948;BME280;43754;56.992;24.292;2023-05-13T08:58:47;102743.81;;;25.55;24.62
57948;BME280;43754;56.992;24.292;2023-05-13T09:01:21;102752.88;;;25.01;24.35
57948;BME280;43754;56.992;24.292;2023-05-13T09:03:57;102733.41;;;24.85;25.84
57948;BME280;43754;56.992;24.292;2023-05-13T09:06:30;102742.53;;;25.03;25.69
57948;BME280;43754;56.992;24.292;2023-05-13T09:09:03;102735.00;;;25.17;24.51
57948;BME280;43754;56.992;24.292;2023-05-13T09:11:36;102742.00;;;25.13;24.91
57948;BME280;43754;56.992;24.292;2023-05-13T09:14:17;102738.47;;;25.06;25.53
57948;BME280;43754;56.992;24.292;2023-05-13T09:16:51;102746.25;;;25.27;27.84
57948;BME280;43754;56.992;24.292;2023-05-13T09:19:26;102737.94;;;25.52;27.18
57948;BME280;43754;56.992;24.292;2023-05-13T09:21:58;102734.19;;;25.64;23.76
57948;BME280;43754;56.992;24.292;2023-05-13T09:24:30;102730.41;;;25.29;23.92
57948;BME280;43754;56.992;24.292;2023-05-13T09:27:04;102725.81;;;25.59;24.88
57948;BME280;43754;56.992;24.292;2023-05-13T09:29:36;102724.59;;;25.55;25.41
57948;BME280;43754;56.992;24.292;2023-05-13T09:32:11;102724.84;;;25.36;25.30
57948;BME280;43754;56.992;24.292;2023-05-13T09:34:46;102724.59;;;25.55;27.65
57948;BME280;43754;56.992;24.292;2023-05-13T09:37:19;102711.53;;;25.51;26.61
57948;BME280;43754;56.992;24.292;2023-05-13T09:39:54;102721.41;;;25.58;24.97
57948;BME280;43754;56.992;24.292;2023-05-13T09:42:26;102721.03;;;25.37;27.66
57948;BME280;43754;56.992;24.292;2023-05-13T09:45:03;102714.16;;;25.46;26.44
57948;BME280;43754;56.992;24.292;2023-05-13T09:47:39;102707.09;;;25.68;26.00
57948;BME280;43754;56.992;24.292;2023-05-13T09:50:11;102714.59;;;25.91;24.57
57948;BME280;43754;56.992;24.292;2023-05-13T09:52:44;102706.50;;;25.96;27.09
57948;BME280;43754;56.992;24.292;2023-05-13T09:55:17;102708.28;;;26.02;26.92
57948;BME280;43754;56.992;24.292;2023-05-13T09:57:49;102711.03;;;26.02;26.58
57948;BME280;43754;56.992;24.292;2023-05-13T10:00:23;102708.56;;;26.00;25.09
57948;BME280;43754;56.992;24.292;2023-05-13T10:03:05;102714.91;;;25.71;25.66
57948;BME280;43754;56.992;24.292;2023-05-13T10:05:38;102713.06;;;25.65;25.15
57948;BME280;43754;56.992;24.292;2023-05-13T10:08:12;102690.00;;;25.96;27.48
57948;BME280;43754;56.992;24.292;2023-05-13T10:10:47;102700.78;;;25.68;25.06
57948;BME280;43754;56.992;24.292;2023-05-13T10:13:22;102702.44;;;25.69;28.77
57948;BME280;43754;56.992;24.292;2023-05-13T10:15:55;102689.72;;;25.86;26.30
57948;BME280;43754;56.992;24.292;2023-05-13T10:18:29;102680.59;;;25.62;26.70
57948;BME280;43754;56.992;24.292;2023-05-13T10:21:02;102697.84;;;25.33;26.93
57948;BME280;43754;56.992;24.292;2023-05-13T10:23:35;102685.28;;;25.25;25.70
57948;BME280;43754;56.992;24.292;2023-05-13T10:26:08;102688.94;;;25.01;27.20
57948;BME280;43754;56.992;24.292;2023-05-13T10:28:42;102686.66;;;25.16;25.96
57948;BME280;43754;56.992;24.292;2023-05-13T10:31:14;102687.59;;;24.92;25.71
57948;BME280;43754;56.992;24.292;2023-05-13T10:33:47;102687.19;;;24.63;25.58
57948;BME280;43754;56.992;24.292;2023-05-13T10:36:36;102684.03;;;24.85;25.79
57948;BME280;43754;56.992;24.292;2023-05-13T10:39:29;102691.69;;;24.76;26.92
57948;BME280;43754;56.992;24.292;2023-05-13T10:42:24;102690.56;;;24.65;27.23
57948;BME280;43754;56.992;24.292;2023-05-13T10:45:01;102690.47;;;24.72;25.54
57948;BME280;43754;56.992;24.292;2023-05-13T10:47:34;102694.28;;;24.53;25.83
57948;BME280;43754;56.992;24.292;2023-05-13T10:50:21;102687.78;;;24.47;27.02
57948;BME280;43754;56.992;24.292;2023-05-13T10:52:55;102690.16;;;24.87;26.83
57948;BME280;43754;56.992;24.292;2023-05-13T10:55:28;102699.00;;;25.07;27.87
57948;BME280;43754;56.992;24.292;2023-05-13T10:58:07;102688.47;;;24.86;25.49
57948;BME280;43754;56.992;24.292;2023-05-13T11:00:41;102695.13;;;24.71;25.82
57948;BME280;43754;56.992;24.292;2023-05-13T11:03:26;102696.47;;;24.19;25.05
57948;BME280;43754;56.992;24.292;2023-05-13T11:06:13;102690.88;;;24.01;24.79
57948;BME280;43754;56.992;24.292;2023-05-13T11:08:47;102692.44;;;23.91;24.71
57948;BME280;43754;56.992;24.292;2023-05-13T11:11:25;102705.84;;;23.99;25.01
57948;BME280;43754;56.992;24.292;2023-05-13T11:14:13;102703.41;;;23.84;25.72
57948;BME280;43754;56.992;24.292;2023-05-13T11:16:47;102712.19;;;23.61;24.53
57948;BME280;43754;56.992;24.292;2023-05-13T11:19:21;102706.34;;;23.38;26.52
57948;BME280;43754;56.992;24.292;2023-05-13T11:21:57;102695.66;;;23.36;25.07
57948;BME280;43754;56.992;24.292;2023-05-13T11:24:29;102702.53;;;23.52;25.52
57948;BME280;43754;56.992;24.292;2023-05-13T11:27:12;102700.22;;;23.43;25.32
57948;BME280;43754;56.992;24.292;2023-05-13T11:29:49;102699.75;;;23.65;27.57
57948;BME280;43754;56.992;24.292;2023-05-13T11:32:51;102694.16;;;24.10;26.53
57948;BME280;43754;56.992;24.292;2023-05-13T11:35:25;102704.16;;;23.98;26.26
57948;BME280;43754;56.992;24.292;2023-05-13T11:38:00;102690.13;;;23.88;25.47
57948;BME280;43754;56.992;24.292;2023-05-13T11:40:33;102695.53;;;24.25;26.80
57948;BME280;43754;56.992;24.292;2023-05-13T11:43:06;102683.63;;;24.38;26.31
57948;BME280;43754;56.992;24.292;2023-05-13T11:45:39;102687.00;;;24.40;27.08
57948;BME280;43754;56.992;24.292;2023-05-13T11:48:17;102688.31;;;24.56;27.97
57948;BME280;43754;56.992;24.292;2023-05-13T11:50:50;102690.13;;;24.44;24.25
57948;BME280;43754;56.992;24.292;2023-05-13T11:53:24;102688.31;;;24.06;27.05
57948;BME280;43754;56.992;24.292;2023-05-13T11:56:07;102684.88;;;23.86;25.81
57948;BME280;43754;56.992;24.292;2023-05-13T11:58:41;102679.06;;;24.01;25.97
57948;BME280;43754;56.992;24.292;2023-05-13T12:01:13;102680.09;;;23.75;24.53
57948;BME280;43754;56.992;24.292;2023-05-13T12:03:45;102697.78;;;23.28;25.65
57948;BME280;43754;56.992;24.292;2023-05-13T12:06:18;102681.28;;;23.54;26.56
57948;BME280;43754;56.992;24.292;2023-05-13T12:08:51;102673.22;;;23.59;25.01
57948;BME280;43754;56.992;24.292;2023-05-13T12:11:23;102678.63;;;23.72;25.34
57948;BME280;43754;56.992;24.292;2023-05-13T12:13:55;102667.00;;;23.46;25.08
57948;BME280;43754;56.992;24.292;2023-05-13T12:16:27;102668.38;;;23.61;26.39
57948;BME280;43754;56.992;24.292;2023-05-13T12:19:03;102670.66;;;23.71;26.29
57948;BME280;43754;56.992;24.292;2023-05-13T12:21:37;102677.94;;;23.83;25.49
57948;BME280;43754;56.992;24.292;2023-05-13T12:24:18;102674.47;;;23.63;24.47
57948;BME280;43754;56.992;24.292;2023-05-13T12:26:50;102672.56;;;23.64;24.62
57948;BME280;43754;56.992;24.292;2023-05-13T12:29:22;102674.53;;;23.57;27.24
57948;BME280;43754;56.992;24.292;2023-05-13T12:32:04;102677.31;;;23.81;26.16
57948;BME280;43754;56.992;24.292;2023-05-13T12:34:36;102674.03;;;23.98;27.08
57948;BME280;43754;56.992;24.292;2023-05-13T12:37:10;102674.56;;;23.81;25.16
57948;BME280;43754;56.992;24.292;2023-05-13T12:39:44;102668.56;;;23.66;26.10
57948;BME280;43754;56.992;24.292;2023-05-13T12:42:17;102680.25;;;23.80;26.03
57948;BME280;43754;56.992;24.292;2023-05-13T12:44:49;102674.19;;;23.78;25.15
57948;BME280;43754;56.992;24.292;2023-05-13T12:47:21;102663.69;;;23.75;26.27
57948;BME280;43754;56.992;24.292;2023-05-13T12:49:54;102669.81;;;23.70;25.96
57948;BME280;43754;56.992;24.292;2023-05-13T12:52:27;102666.81;;;23.78;27.90
57948;BME280;43754;56.992;24.292;2023-05-13T12:55:00;102664.38;;;23.95;25.79
57948;BME280;43754;56.992;24.292;2023-05-13T12:57:32;102669.41;;;23.67;26.40
57948;BME280;43754;56.992;24.292;2023-05-13T13:00:06;102666.72;;;23.92;27.02
57948;BME280;43754;56.992;24.292;2023-05-13T13:02:40;102667.19;;;23.82;25.88
57948;BME280;43754;56.992;24.292;2023-05-13T13:05:12;102659.75;;;23.96;27.04
57948;BME280;43754;56.992;24.292;2023-05-13T13:07:44;102655.16;;;24.14;27.17
57948;BME280;43754;56.992;24.292;2023-05-13T13:10:18;102654.09;;;23.84;26.01
57948;BME280;43754;56.992;24.292;2023-05-13T13:12:50;102667.31;;;23.94;26.43
57948;BME280;43754;56.992;24.292;2023-05-13T13:15:22;102661.84;;;23.62;25.77
57948;BME280;43754;56.992;24.292;2023-05-13T13:17:55;102661.75;;;23.44;27.00